• Join FlightAware (Why Join?)
  • Login
  • US Flag 
10:37AM EDT


 

Airport Tracker/Info


-or-


 

Live Flight TrackerFlight Track Log ✈ SKW6377 ✈ 01-May-2013 ✈ KCPR - KDEN

Flight Track Log - Related Links

Times and Time Zones

All times are in EDT time to prevent confusion due to time zone crossing. See the SKW6377 flight status page for this flight to view local times or setup timezone preferences in your user account.

Time Position Orientation Groundspeed Altitude Reporting Facility
EDT Latitude Longitude Course Direction KTS MPH feet Rate Location/Type
03:51PM 42.8242 -106.3300 172° South 259 298 12,200  Level Denver Center
03:52PM 42.7367 -106.3258 178° South 299 344 13,800 1,740 Climbing Denver Center
03:53PM 42.7887 -106.2667 180° South  Level FlightAware Approximate
03:53PM 42.6481 -106.3181 176° South 330 380 15,800  Level Denver Center
03:54PM 42.6914 -106.2660 176° South  Level FlightAware Approximate
03:54PM 42.5383 -106.3117 178° South 355 409 17,900  Level Denver Center
03:55PM 42.5942 -106.2578 176° South  Level FlightAware Approximate
03:55PM 42.4417 -106.3064 178° South 360 414 20,100  Level Denver Center
03:56PM 42.3356 -106.3003 178° South 350 403 22,500 1,680 Climbing Denver Center
03:57PM 42.2411 -106.2939 177° South 352 405 23,600 1,140 Climbing Denver Center
03:58PM 42.1261 -106.2867 177° South 363 418 24,900 1,200 Climbing Denver Center
03:59PM 42.0247 -106.2797 177° South 375 432 26,100 960 Climbing Denver Center
04:00PM 41.9083 -106.2731 178° South 376 433 27,000 420 Climbing Denver Center
04:01PM 41.8044 -106.2658 177° South 387 445 27,000  Level Denver Center
04:02PM 41.6786 -106.2586 178° South 402 463 27,000  Level Denver Center
04:03PM 41.5603 -106.2500 177° South 382 440 27,000  Level Denver Center
04:04PM 41.4581 -106.2439 177° South 335 386 27,000  Level Denver Center
04:05PM 41.3708 -106.2069 162° South 339 390 27,000  Level Denver Center
04:06PM 41.2792 -106.1678 162° South 341 392 27,000  Level Denver Center
04:07PM 41.1533 -106.1144 162° South 342 394 27,000  Level Denver Center
04:08PM 41.0689 -106.0706 159° South 340 391 27,000  Level Denver Center
04:09PM 40.9764 -106.0172 156° South 350 403 27,000  Level Denver Center
04:11PM 40.8836 -105.9511 152° Southeast 373 429 27,000  Level Denver Center
04:12PM 40.8164 -105.8247 125° Southeast 413 475 27,000 -60 Level Denver Center
04:13PM 40.7578 -105.7197 126° Southeast 420 483 26,900 -720 Descending Denver Center
04:14PM 40.6775 -105.5739 126° Southeast 417 480 25,600 -1,200 Descending Denver Center
04:15PM 40.6231 -105.4731 125° Southeast 404 465 24,500 -1,560 Descending Denver Center
04:16PM 40.5414 -105.3264 126° Southeast 372 428 22,500 -1,740 Descending Denver Center
04:17PM 40.4836 -105.2300 128° Southeast 340 391 21,000 -1,620 Descending Denver Center
04:18PM 40.4075 -105.1628 146° Southeast 319 367 19,200 -1,740 Descending Denver Center
04:19PM 40.3394 -105.0911 141° Southeast 312 359 17,500 -1,620 Descending Denver Center
04:20PM 40.2636 -105.0119 141° Southeast 326 375 15,900 -1,260 Descending Denver Center
04:21PM 40.1958 -104.9400 141° Southeast 315 362 15,000 -840 Descending Denver Center
04:22PM 40.1308 -104.8722 141° Southeast 301 346 14,200 -900 Descending Denver Center
04:23PM 40.0592 -104.7972 141° Southeast 305 351 13,200 -780 Descending Denver Center
04:24PM 40.0039 -104.7333 138° Southeast 256 295 12,700 -960 Descending Denver Center
04:25PM 39.9586 -104.6617 129° Southeast 255 293 11,300 -780 Descending Denver Center
04:26PM 39.9094 -104.5894 132° Southeast 246 283 11,000 -180 Descending Denver Center
04:27PM 39.8517 -104.5072 132° Southeast 250 288 11,000  Level Denver Center
04:28PM 39.7878 -104.4828 164° South 250 288 11,000 -600 Level Denver Center
04:29PM 39.7169 -104.4892 184° South 250 288 9,800 -1,260 Descending Denver Center
04:30PM 39.6428 -104.4981 185° South 245 282 8,500 -900 Descending Denver Center
04:31PM 39.5750 -104.5117 189° South 242 278 8,000 -300 Descending Denver Center
04:32PM 39.5467 -104.5719 239° Southwest 226 260 8,000  Level Denver Center
04:33PM 39.5631 -104.6439 286° West 213 245 8,000  Level Denver Center
04:34PM 39.6161 -104.6444 360° North 191 220 8,000  Level Denver Center
04:35PM 39.6681 -104.6458 359° North 187 215 8,000 -120 Level Denver Center
04:36PM 39.7181 -104.6431 North 171 197 7,800 -240 Descending Denver Center